Time;durP1;ratioP1;P1;durP2;ratioP2;P2;SDS_P1;SDS_P2;PMS_P1;PMS_P2;Temp;Humidity;BMP_temperature;BMP_pressure;BME280_temperature;BME280_humidity;BME280_pressure;Samples;Min_cycle;Max_cycle;Signal;HPM_P1;HPM_P2
2023/09/13 00:00:16;;;;;;;31.73;20.17;;;;;;;;;;1031576;28;20487;-68
2023/09/13 00:01:12;;;;;;;33.08;21.25;;;;;;;;;;1032452;28;20080;-67
2023/09/13 00:01:43;;;;;;;32.40;22.38;;;;;;;;;;1030403;28;20056;-69
2023/09/13 00:02:15;;;;;;;32.95;23.35;;;;;;;;;;1030018;28;20054;-69
2023/09/13 00:02:45;;;;;;;34.42;23.02;;;;;;;;;;1024185;28;20511;-68
2023/09/13 00:03:16;;;;;;;32.58;21.23;;;;;;;;;;1021705;28;20047;-69
2023/09/13 00:03:47;;;;;;;30.08;22.95;;;;;;;;;;1027664;28;20047;-66
2023/09/13 00:04:19;;;;;;;33.63;23.08;;;;;;;;;;1032766;28;20918;-67
2023/09/13 00:05:10;;;;;;;31.33;20.92;;;;;;;;;;1028682;28;20105;-68
2023/09/13 00:05:46;;;;;;;28.02;21.33;;;;;;;;;;1028941;28;20468;-69
2023/09/13 00:06:17;;;;;;;32.05;20.88;;;;;;;;;;1028552;28;20054;-69
2023/09/13 00:06:48;;;;;;;31.88;23.27;;;;;;;;;;1028832;28;20107;-69
2023/09/13 00:07:36;;;;;;;31.67;21.85;;;;;;;;;;1029050;28;20045;-66
2023/09/13 00:08:25;;;;;;;32.35;21.17;;;;;;;;;;1027553;28;20113;-68
2023/09/13 00:08:56;;;;;;;30.20;21.17;;;;;;;;;;1029241;28;20050;-68
2023/09/13 00:09:26;;;;;;;27.67;22.65;;;;;;;;;;1029325;28;20092;-68
2023/09/13 00:09:57;;;;;;;30.15;21.20;;;;;;;;;;1028498;28;20046;-68
2023/09/13 00:10:28;;;;;;;28.77;22.23;;;;;;;;;;1028069;28;20459;-67
2023/09/13 00:11:05;;;;;;;32.25;22.13;;;;;;;;;;1028005;28;20080;-68
2023/09/13 00:11:35;;;;;;;29.63;21.98;;;;;;;;;;1029072;28;20435;-67
2023/09/13 00:12:09;;;;;;;38.53;22.80;;;;;;;;;;1029769;28;20798;-69
2023/09/13 00:12:40;;;;;;;31.35;20.70;;;;;;;;;;1028129;28;20065;-67
2023/09/13 00:13:12;;;;;;;29.85;21.80;;;;;;;;;;1028759;28;20050;-68
2023/09/13 00:13:44;;;;;;;35.47;22.88;;;;;;;;;;1029362;28;20054;-67
2023/09/13 00:14:15;;;;;;;29.88;21.60;;;;;;;;;;1029234;28;20050;-67
2023/09/13 00:14:47;;;;;;;34.72;21.75;;;;;;;;;;1028107;28;20148;-68
2023/09/13 00:15:18;;;;;;;29.85;21.80;;;;;;;;;;1026388;28;20116;-67
2023/09/13 00:15:48;;;;;;;31.67;23.35;;;;;;;;;;1028911;28;20105;-68
2023/09/13 00:16:19;;;;;;;35.45;22.90;;;;;;;;;;1028787;28;20049;-68
2023/09/13 00:16:52;;;;;;;28.33;21.80;;;;;;;;;;1029126;28;20046;-66
2023/09/13 00:17:23;;;;;;;26.85;21.80;;;;;;;;;;1029702;28;20056;-67
2023/09/13 00:17:54;;;;;;;33.45;22.05;;;;;;;;;;1028220;28;20050;-67
2023/09/13 00:18:24;;;;;;;31.90;22.50;;;;;;;;;;1028024;28;20054;-68
2023/09/13 00:18:55;;;;;;;33.55;22.65;;;;;;;;;;1029839;28;20057;-67
2023/09/13 00:19:29;;;;;;;33.17;21.80;;;;;;;;;;1027562;28;20133;-68
2023/09/13 00:20:02;;;;;;;27.92;21.17;;;;;;;;;;1028156;28;20647;-67
2023/09/13 00:20:33;;;;;;;35.40;21.63;;;;;;;;;;1028377;28;20150;-70
2023/09/13 00:21:03;;;;;;;25.23;21.17;;;;;;;;;;1029207;28;20065;-68
2023/09/13 00:21:40;;;;;;;26.90;20.65;;;;;;;;;;1027225;28;20095;-68
2023/09/13 00:22:10;;;;;;;32.10;21.75;;;;;;;;;;1029147;28;20165;-68
2023/09/13 00:22:41;;;;;;;30.02;21.15;;;;;;;;;;1028155;28;20127;-68
2023/09/13 00:23:12;;;;;;;32.60;21.38;;;;;;;;;;1028506;28;20047;-68
2023/09/13 00:23:42;;;;;;;32.30;21.88;;;;;;;;;;1029136;28;20054;-68
2023/09/13 00:24:13;;;;;;;32.35;21.20;;;;;;;;;;1029043;28;20078;-67
2023/09/13 00:24:45;;;;;;;30.85;22.27;;;;;;;;;;1028287;28;20050;-66
2023/09/13 00:25:16;;;;;;;29.00;21.33;;;;;;;;;;1028234;28;20047;-67
2023/09/13 00:25:46;;;;;;;32.70;22.15;;;;;;;;;;1027154;28;20058;-67
2023/09/13 00:26:17;;;;;;;29.30;21.73;;;;;;;;;;1029376;28;20201;-67
2023/09/13 00:26:48;;;;;;;28.02;21.73;;;;;;;;;;1027990;28;20125;-67
2023/09/13 00:27:18;;;;;;;30.83;21.83;;;;;;;;;;1030974;28;20053;-68
2023/09/13 00:27:49;;;;;;;30.10;21.58;;;;;;;;;;1029068;28;20078;-68
2023/09/13 00:28:19;;;;;;;35.63;22.73;;;;;;;;;;1028953;28;20061;-68
2023/09/13 00:28:50;;;;;;;34.95;22.10;;;;;;;;;;1029064;28;20069;-69
2023/09/13 00:29:20;;;;;;;28.63;21.02;;;;;;;;;;1033595;28;20065;-66
2023/09/13 00:29:51;;;;;;;32.15;22.00;;;;;;;;;;1033332;28;20050;-68
2023/09/13 00:30:22;;;;;;;32.70;23.58;;;;;;;;;;1032903;28;20084;-68
2023/09/13 00:30:52;;;;;;;28.65;22.20;;;;;;;;;;1032756;28;20061;-67
2023/09/13 00:31:23;;;;;;;38.50;23.10;;;;;;;;;;1033359;28;20054;-67
2023/09/13 00:31:54;;;;;;;33.65;22.10;;;;;;;;;;1033250;28;20056;-69
2023/09/13 00:32:24;;;;;;;41.40;23.38;;;;;;;;;;1032622;28;20056;-67
2023/09/13 00:32:55;;;;;;;29.23;23.23;;;;;;;;;;1033579;28;20046;-67
2023/09/13 00:33:25;;;;;;;31.00;24.08;;;;;;;;;;1034177;28;20104;-68
2023/09/13 00:33:56;;;;;;;29.25;22.90;;;;;;;;;;1031561;28;20050;-69
2023/09/13 00:34:26;;;;;;;33.78;23.05;;;;;;;;;;1034104;28;20479;-68
2023/09/13 00:34:57;;;;;;;30.45;24.02;;;;;;;;;;1032937;28;20056;-68
2023/09/13 00:35:27;;;;;;;32.00;24.42;;;;;;;;;;1033341;28;20042;-67
2023/09/13 00:35:58;;;;;;;32.33;24.65;;;;;;;;;;1031623;28;20050;-68
2023/09/13 00:36:28;;;;;;;31.05;24.75;;;;;;;;;;1033877;28;20392;-68
2023/09/13 00:36:59;;;;;;;36.75;26.48;;;;;;;;;;1033785;28;20054;-67
2023/09/13 00:37:30;;;;;;;36.97;25.98;;;;;;;;;;1031513;28;20046;-67
2023/09/13 00:38:00;;;;;;;34.97;25.02;;;;;;;;;;1033472;28;20041;-70
2023/09/13 00:38:31;;;;;;;32.33;25.02;;;;;;;;;;1033584;28;20211;-68
2023/09/13 00:39:04;;;;;;;39.00;26.58;;;;;;;;;;1034024;28;20053;-67
2023/09/13 00:39:34;;;;;;;34.63;24.70;;;;;;;;;;1032592;28;20444;-67
2023/09/13 00:40:05;;;;;;;34.42;25.45;;;;;;;;;;1033877;28;20500;-67
2023/09/13 00:40:36;;;;;;;36.58;24.23;;;;;;;;;;1032607;28;20054;-68
2023/09/13 00:41:06;;;;;;;33.13;25.88;;;;;;;;;;1032766;28;20058;-68
2023/09/13 00:41:37;;;;;;;41.13;24.75;;;;;;;;;;1031834;28;20117;-67
2023/09/13 00:42:07;;;;;;;34.00;24.60;;;;;;;;;;1032323;28;20054;-67
2023/09/13 00:42:38;;;;;;;31.98;23.05;;;;;;;;;;1030614;28;20107;-68
2023/09/13 00:43:08;;;;;;;32.08;22.92;;;;;;;;;;1032205;28;20050;-69
2023/09/13 00:43:39;;;;;;;33.58;25.10;;;;;;;;;;1030287;28;20705;-69
2023/09/13 00:44:10;;;;;;;29.08;22.90;;;;;;;;;;1032984;28;21605;-67
2023/09/13 00:44:40;;;;;;;30.17;23.83;;;;;;;;;;1033721;28;20081;-67
2023/09/13 00:45:11;;;;;;;33.78;24.92;;;;;;;;;;1033086;28;20124;-68
2023/09/13 00:45:42;;;;;;;33.70;24.40;;;;;;;;;;1031442;28;20053;-68
2023/09/13 00:46:13;;;;;;;31.45;23.50;;;;;;;;;;1030100;28;20070;-69
2023/09/13 00:46:45;;;;;;;30.52;24.05;;;;;;;;;;1033565;28;20050;-69
2023/09/13 00:47:16;;;;;;;32.60;25.02;;;;;;;;;;1031895;28;20216;-67
2023/09/13 00:47:48;;;;;;;31.02;23.17;;;;;;;;;;1033775;28;20100;-68
2023/09/13 00:48:18;;;;;;;31.45;24.75;;;;;;;;;;1030500;28;20124;-69
2023/09/13 00:48:49;;;;;;;39.58;26.63;;;;;;;;;;1033043;28;20449;-69
2023/09/13 00:49:20;;;;;;;44.28;25.42;;;;;;;;;;1032192;28;20073;-69
2023/09/13 00:49:51;;;;;;;37.53;26.77;;;;;;;;;;1031609;28;20053;-66
2023/09/13 00:50:21;;;;;;;36.95;26.98;;;;;;;;;;1032602;28;20441;-69
2023/09/13 00:50:52;;;;;;;38.83;25.30;;;;;;;;;;1031866;28;20547;-66
2023/09/13 00:51:23;;;;;;;31.98;24.95;;;;;;;;;;1031646;28;20062;-66
2023/09/13 00:51:56;;;;;;;35.53;25.42;;;;;;;;;;1032303;28;20125;-68
2023/09/13 00:52:27;;;;;;;35.47;24.98;;;;;;;;;;1033152;28;20073;-67
2023/09/13 00:52:58;;;;;;;35.90;25.40;;;;;;;;;;1030826;28;20061;-67
2023/09/13 00:53:31;;;;;;;35.17;25.10;;;;;;;;;;1033351;28;20053;-68
2023/09/13 00:54:04;;;;;;;31.50;24.70;;;;;;;;;;1033419;28;20092;-66
2023/09/13 00:54:34;;;;;;;35.42;24.42;;;;;;;;;;1030683;28;20050;-67
2023/09/13 00:55:06;;;;;;;33.38;24.90;;;;;;;;;;1032257;28;20125;-68
2023/09/13 00:55:37;;;;;;;32.58;25.33;;;;;;;;;;1033223;28;20511;-68
2023/09/13 00:56:11;;;;;;;29.58;24.33;;;;;;;;;;1032584;28;20081;-68
2023/09/13 00:56:42;;;;;;;34.15;24.17;;;;;;;;;;1030322;28;20116;-69
2023/09/13 00:57:13;;;;;;;36.03;22.88;;;;;;;;;;1033292;28;20145;-68
2023/09/13 00:57:44;;;;;;;30.73;23.65;;;;;;;;;;1032402;28;20046;-69
2023/09/13 00:58:15;;;;;;;32.30;23.90;;;;;;;;;;1033164;28;20453;-69
2023/09/13 00:58:47;;;;;;;33.88;23.60;;;;;;;;;;1030418;28;20383;-68
2023/09/13 00:59:18;;;;;;;36.13;24.15;;;;;;;;;;1033190;28;20050;-68
2023/09/13 00:59:49;;;;;;;33.15;24.20;;;;;;;;;;1031532;28;20054;-67
2023/09/13 01:00:20;;;;;;;38.33;24.45;;;;;;;;;;1032942;28;20061;-67
2023/09/13 01:00:53;;;;;;;35.85;24.38;;;;;;;;;;1036415;28;20557;-68
2023/09/13 01:01:24;;;;;;;31.65;25.17;;;;;;;;;;1035651;28;20041;-67
2023/09/13 01:01:54;;;;;;;37.95;24.23;;;;;;;;;;1034563;28;20057;-66
2023/09/13 01:02:25;;;;;;;39.83;24.52;;;;;;;;;;1035466;28;20087;-68
2023/09/13 01:02:55;;;;;;;33.33;24.90;;;;;;;;;;1028987;28;20074;-68
2023/09/13 01:03:27;;;;;;;33.72;24.60;;;;;;;;;;1029161;28;20050;-68
2023/09/13 01:03:58;;;;;;;37.20;24.30;;;;;;;;;;1031108;28;20049;-68
2023/09/13 01:04:28;;;;;;;32.20;25.35;;;;;;;;;;1032862;28;20129;-68
2023/09/13 01:04:59;;;;;;;31.85;23.67;;;;;;;;;;1032922;28;20057;-67
2023/09/13 01:05:30;;;;;;;36.08;23.88;;;;;;;;;;1031914;28;20042;-68
2023/09/13 01:06:01;;;;;;;35.72;24.35;;;;;;;;;;1032695;28;20140;-68
2023/09/13 01:06:33;;;;;;;36.70;25.15;;;;;;;;;;1031204;28;20050;-69
2023/09/13 01:07:06;;;;;;;37.75;25.77;;;;;;;;;;1032740;28;20061;-66
2023/09/13 01:07:41;;;;;;;40.85;25.15;;;;;;;;;;1031437;28;20042;-69
2023/09/13 01:08:12;;;;;;;34.05;26.50;;;;;;;;;;1032327;28;20112;-66
2023/09/13 01:08:45;;;;;;;31.25;24.67;;;;;;;;;;1030734;28;20181;-68
2023/09/13 01:09:17;;;;;;;34.47;25.70;;;;;;;;;;1032024;28;20128;-68
2023/09/13 01:09:47;;;;;;;40.08;26.13;;;;;;;;;;1031879;28;20095;-69
2023/09/13 01:10:19;;;;;;;40.80;25.42;;;;;;;;;;1033702;28;20167;-68
2023/09/13 01:10:50;;;;;;;33.58;25.58;;;;;;;;;;1031315;28;20053;-69
2023/09/13 01:11:20;;;;;;;35.53;25.35;;;;;;;;;;1034028;28;20092;-67
2023/09/13 01:11:51;;;;;;;38.08;25.17;;;;;;;;;;1032408;28;20078;-68
2023/09/13 01:12:22;;;;;;;35.58;26.02;;;;;;;;;;1033029;28;20056;-68
2023/09/13 01:12:53;;;;;;;32.40;25.27;;;;;;;;;;1031000;28;20206;-69
2023/09/13 01:13:24;;;;;;;34.67;25.80;;;;;;;;;;1033423;28;20192;-67
2023/09/13 01:13:54;;;;;;;36.72;26.77;;;;;;;;;;1033062;28;20568;-68
2023/09/13 01:14:25;;;;;;;35.88;26.27;;;;;;;;;;1031169;28;20042;-67
2023/09/13 01:14:56;;;;;;;34.38;26.25;;;;;;;;;;1030738;28;20506;-67
2023/09/13 01:15:28;;;;;;;36.13;26.08;;;;;;;;;;1030933;28;20050;-67
2023/09/13 01:16:31;;;;;;;34.28;26.98;;;;;;;;;;1031953;28;20066;-67
2023/09/13 01:17:14;;;;;;;35.00;26.20;;;;;;;;;;1033645;28;20137;-68
2023/09/13 01:18:07;;;;;;;36.88;26.17;;;;;;;;;;1031208;28;20045;-68
2023/09/13 01:18:46;;;;;;;35.08;25.98;;;;;;;;;;1031679;28;20050;-67
2023/09/13 01:19:50;;;;;;;32.47;24.75;;;;;;;;;;1033765;28;20776;-68
2023/09/13 01:20:42;;;;;;;32.03;25.10;;;;;;;;;;1031633;28;20066;-69
2023/09/13 01:21:25;;;;;;;35.60;25.02;;;;;;;;;;1032168;28;20061;-68
2023/09/13 01:22:11;;;;;;;42.08;27.15;;;;;;;;;;1031496;28;20045;-67
2023/09/13 01:23:16;;;;;;;35.67;24.42;;;;;;;;;;1031455;28;20053;-68
2023/09/13 01:24:08;;;;;;;33.42;24.40;;;;;;;;;;1032582;28;20050;-68
2023/09/13 01:25:08;;;;;;;32.50;25.23;;;;;;;;;;1032185;28;20050;-68
2023/09/13 01:26:08;;;;;;;33.35;24.67;;;;;;;;;;1033729;28;20103;-69
2023/09/13 01:26:57;;;;;;;35.25;23.75;;;;;;;;;;1030389;28;20137;-69
2023/09/13 01:28:02;;;;;;;32.38;24.35;;;;;;;;;;1032232;28;20485;-66
2023/09/13 01:28:38;;;;;;;31.05;24.58;;;;;;;;;;1032427;28;20045;-68
2023/09/13 01:29:14;;;;;;;35.10;24.83;;;;;;;;;;1032731;28;20050;-67
2023/09/13 01:29:45;;;;;;;34.03;24.23;;;;;;;;;;1032736;28;20057;-67
2023/09/13 01:30:16;;;;;;;30.73;24.70;;;;;;;;;;1029820;28;20061;-68
2023/09/13 01:30:49;;;;;;;29.52;25.00;;;;;;;;;;1030661;28;20153;-67
2023/09/13 01:31:21;;;;;;;35.88;26.60;;;;;;;;;;1030646;28;20535;-66
2023/09/13 01:31:52;;;;;;;32.28;26.08;;;;;;;;;;1031734;28;20061;-67
2023/09/13 01:32:23;;;;;;;34.92;26.83;;;;;;;;;;1031491;28;20049;-69
2023/09/13 01:32:53;;;;;;;31.65;26.67;;;;;;;;;;1033700;28;20049;-68
2023/09/13 01:33:24;;;;;;;36.60;27.40;;;;;;;;;;1032232;28;20046;-69
2023/09/13 01:33:54;;;;;;;35.05;25.55;;;;;;;;;;1032629;28;20461;-69
2023/09/13 01:34:25;;;;;;;32.85;26.48;;;;;;;;;;1032245;28;20072;-68
2023/09/13 01:34:57;;;;;;;31.90;25.30;;;;;;;;;;1032133;28;20053;-67
2023/09/13 01:35:29;;;;;;;32.20;25.52;;;;;;;;;;1032450;28;20074;-67
2023/09/13 01:35:59;;;;;;;35.33;26.55;;;;;;;;;;1030373;28;20054;-67
2023/09/13 01:36:30;;;;;;;34.45;27.60;;;;;;;;;;1028880;28;20129;-68
2023/09/13 01:37:01;;;;;;;35.00;26.90;;;;;;;;;;1032532;28;20056;-67
2023/09/13 01:37:32;;;;;;;32.17;26.75;;;;;;;;;;1031071;28;20080;-67
2023/09/13 01:38:03;;;;;;;31.15;26.15;;;;;;;;;;1032221;28;20501;-68
2023/09/13 01:38:34;;;;;;;29.30;24.92;;;;;;;;;;1036341;28;20053;-66
2023/09/13 01:39:06;;;;;;;30.08;25.80;;;;;;;;;;1033448;28;20057;-66
2023/09/13 01:39:36;;;;;;;30.80;25.13;;;;;;;;;;1031062;28;20053;-68
2023/09/13 01:40:09;;;;;;;37.75;26.38;;;;;;;;;;1031804;28;20491;-67
2023/09/13 01:40:44;;;;;;;34.72;25.35;;;;;;;;;;1031908;28;20054;-68
2023/09/13 01:41:21;;;;;;;31.35;25.20;;;;;;;;;;1032826;28;20562;-67
2023/09/13 01:41:56;;;;;;;36.30;25.02;;;;;;;;;;1030887;28;20524;-69
2023/09/13 01:42:29;;;;;;;28.13;23.98;;;;;;;;;;1029522;28;20041;-68
2023/09/13 01:43:03;;;;;;;37.75;26.73;;;;;;;;;;1030564;28;20058;-68
2023/09/13 01:43:34;;;;;;;31.90;25.67;;;;;;;;;;1032722;28;20045;-69
2023/09/13 01:44:14;;;;;;;33.40;25.92;;;;;;;;;;1032299;28;20172;-67
2023/09/13 01:44:50;;;;;;;37.22;26.30;;;;;;;;;;1032453;28;20053;-68
2023/09/13 01:45:21;;;;;;;34.28;25.58;;;;;;;;;;1032126;28;20115;-68
2023/09/13 01:45:54;;;;;;;33.05;25.83;;;;;;;;;;1032779;28;20588;-67
2023/09/13 01:46:35;;;;;;;36.50;26.20;;;;;;;;;;1033688;28;20073;-67
2023/09/13 01:47:07;;;;;;;32.58;26.00;;;;;;;;;;1031436;28;20383;-68
2023/09/13 01:47:42;;;;;;;35.58;24.95;;;;;;;;;;1034150;28;20037;-68
2023/09/13 01:48:15;;;;;;;31.15;26.38;;;;;;;;;;1034033;28;20152;-68
2023/09/13 01:48:48;;;;;;;34.70;26.75;;;;;;;;;;1031928;28;20058;-68
2023/09/13 01:49:21;;;;;;;33.90;26.83;;;;;;;;;;1031773;28;20052;-68
2023/09/13 01:49:52;;;;;;;34.70;26.13;;;;;;;;;;1033809;28;20058;-67
2023/09/13 01:50:23;;;;;;;35.30;26.98;;;;;;;;;;1032207;28;20054;-69
2023/09/13 01:50:57;;;;;;;32.45;28.23;;;;;;;;;;1032124;28;20088;-68
2023/09/13 01:51:33;;;;;;;30.45;26.17;;;;;;;;;;1032323;28;20054;-68
2023/09/13 01:52:05;;;;;;;42.33;27.52;;;;;;;;;;1029105;28;20177;-68
2023/09/13 01:52:51;;;;;;;40.35;27.42;;;;;;;;;;1025306;28;20050;-68
2023/09/13 01:53:24;;;;;;;39.50;27.80;;;;;;;;;;1025542;28;20090;-68
2023/09/13 01:53:56;;;;;;;34.65;28.70;;;;;;;;;;1031689;28;20395;-68
2023/09/13 01:54:36;;;;;;;35.58;27.75;;;;;;;;;;1031231;28;20046;-66
2023/09/13 01:55:10;;;;;;;41.15;28.42;;;;;;;;;;1031364;28;20410;-68
2023/09/13 01:55:41;;;;;;;33.35;26.77;;;;;;;;;;1032987;28;20076;-68
2023/09/13 01:56:12;;;;;;;35.72;27.95;;;;;;;;;;1033857;28;20060;-69
2023/09/13 01:56:44;;;;;;;44.15;28.55;;;;;;;;;;1027061;28;20644;-67
2023/09/13 01:57:15;;;;;;;33.80;26.42;;;;;;;;;;1029005;28;20085;-68
2023/09/13 01:57:48;;;;;;;39.05;27.70;;;;;;;;;;1029449;28;20065;-68
2023/09/13 01:58:19;;;;;;;35.40;27.95;;;;;;;;;;1032128;28;20057;-69
2023/09/13 01:58:50;;;;;;;34.38;27.27;;;;;;;;;;1032972;28;20108;-68
2023/09/13 01:59:27;;;;;;;31.85;25.45;;;;;;;;;;1033842;28;20046;-69
2023/09/13 02:00:01;;;;;;;37.63;28.20;;;;;;;;;;1028829;28;20465;-68
2023/09/13 02:00:31;;;;;;;35.22;26.35;;;;;;;;;;1027822;28;21069;-69
2023/09/13 02:01:03;;;;;;;39.40;26.90;;;;;;;;;;1028511;28;20057;-69
2023/09/13 02:01:33;;;;;;;30.33;26.25;;;;;;;;;;1029490;28;20045;-68
2023/09/13 02:02:04;;;;;;;32.65;28.38;;;;;;;;;;1032930;28;20576;-67
2023/09/13 02:02:35;;;;;;;36.28;28.65;;;;;;;;;;1031106;28;20045;-68
2023/09/13 02:03:05;;;;;;;31.83;27.33;;;;;;;;;;1033080;28;20360;-68
2023/09/13 02:03:36;;;;;;;35.78;28.05;;;;;;;;;;1034654;28;20052;-66
2023/09/13 02:04:07;;;;;;;35.85;29.92;;;;;;;;;;1032546;28;20058;-68
2023/09/13 02:04:37;;;;;;;40.05;30.15;;;;;;;;;;1034191;28;20121;-68
2023/09/13 02:05:08;;;;;;;35.10;28.48;;;;;;;;;;1034210;28;20126;-67
2023/09/13 02:05:38;;;;;;;38.08;27.92;;;;;;;;;;1034015;28;20038;-68
2023/09/13 02:06:09;;;;;;;36.30;28.77;;;;;;;;;;1033642;28;20054;-69
2023/09/13 02:06:40;;;;;;;36.55;28.00;;;;;;;;;;1032588;28;20831;-67
2023/09/13 02:07:10;;;;;;;41.50;28.75;;;;;;;;;;1033176;28;20136;-68
2023/09/13 02:07:41;;;;;;;38.72;26.85;;;;;;;;;;1033579;28;20046;-68
2023/09/13 02:08:11;;;;;;;33.90;26.88;;;;;;;;;;1032179;28;20057;-67
2023/09/13 02:08:42;;;;;;;34.13;27.42;;;;;;;;;;1033205;28;20054;-68
2023/09/13 02:09:13;;;;;;;31.70;26.90;;;;;;;;;;1033368;28;20081;-67
2023/09/13 02:09:43;;;;;;;34.63;28.15;;;;;;;;;;1031690;28;20050;-68
2023/09/13 02:10:14;;;;;;;32.28;26.02;;;;;;;;;;1034318;28;20620;-68
2023/09/13 02:10:48;;;;;;;33.10;25.50;;;;;;;;;;1033773;28;20069;-68
2023/09/13 02:11:18;;;;;;;33.00;26.05;;;;;;;;;;1033733;28;20157;-68
2023/09/13 02:11:48;;;;;;;33.97;26.30;;;;;;;;;;1032718;28;20081;-69
2023/09/13 02:12:19;;;;;;;33.33;27.35;;;;;;;;;;1031720;28;20509;-69
2023/09/13 02:12:49;;;;;;;34.25;26.60;;;;;;;;;;1033907;28;20056;-69
2023/09/13 02:13:20;;;;;;;34.17;27.48;;;;;;;;;;1032616;28;20054;-69
2023/09/13 02:13:50;;;;;;;32.50;26.55;;;;;;;;;;1032853;28;20081;-68
2023/09/13 02:14:21;;;;;;;36.05;27.13;;;;;;;;;;1034439;28;20557;-69
2023/09/13 02:14:53;;;;;;;34.88;26.48;;;;;;;;;;1030882;28;20078;-67
2023/09/13 02:15:23;;;;;;;32.70;26.42;;;;;;;;;;1032209;28;20046;-67
2023/09/13 02:15:54;;;;;;;31.10;26.25;;;;;;;;;;1034301;28;20072;-69
2023/09/13 02:16:24;;;;;;;34.63;26.92;;;;;;;;;;1032454;28;20053;-68
2023/09/13 02:16:58;;;;;;;31.77;26.10;;;;;;;;;;1032938;28;20065;-68
2023/09/13 02:17:31;;;;;;;34.67;25.52;;;;;;;;;;1031731;28;20046;-68
2023/09/13 02:18:01;;;;;;;31.77;26.40;;;;;;;;;;1032311;28;20074;-69
2023/09/13 02:18:32;;;;;;;32.38;26.02;;;;;;;;;;1031596;28;20064;-68
2023/09/13 02:19:04;;;;;;;34.97;26.60;;;;;;;;;;1033244;28;20076;-68
2023/09/13 02:19:37;;;;;;;30.17;26.58;;;;;;;;;;1031208;28;20414;-69
2023/09/13 02:20:11;;;;;;;34.35;26.08;;;;;;;;;;1033697;28;20050;-67
2023/09/13 02:20:41;;;;;;;33.83;25.38;;;;;;;;;;1031916;28;20114;-67
2023/09/13 02:21:12;;;;;;;32.67;26.52;;;;;;;;;;1034261;28;20046;-68
2023/09/13 02:21:42;;;;;;;37.78;26.55;;;;;;;;;;1033411;28;20184;-68
2023/09/13 02:22:13;;;;;;;32.67;25.92;;;;;;;;;;1032466;28;20038;-69
2023/09/13 02:22:43;;;;;;;33.95;24.70;;;;;;;;;;1031063;28;20045;-67
2023/09/13 02:23:14;;;;;;;34.63;26.52;;;;;;;;;;1034051;28;20482;-67
2023/09/13 02:23:44;;;;;;;33.45;26.48;;;;;;;;;;1033658;28;20049;-67
2023/09/13 02:24:15;;;;;;;33.60;25.38;;;;;;;;;;1034246;28;20057;-68
2023/09/13 02:24:45;;;;;;;36.58;25.40;;;;;;;;;;1032166;28;20081;-66
2023/09/13 02:25:16;;;;;;;32.30;25.05;;;;;;;;;;1032189;28;20092;-69
2023/09/13 02:25:47;;;;;;;34.20;26.73;;;;;;;;;;1033362;28;20050;-68
2023/09/13 02:26:19;;;;;;;34.30;25.55;;;;;;;;;;1033197;28;20784;-69
2023/09/13 02:26:57;;;;;;;33.88;25.77;;;;;;;;;;1032953;28;20057;-68
2023/09/13 02:27:28;;;;;;;31.33;24.33;;;;;;;;;;1033766;28;20641;-67
2023/09/13 02:27:59;;;;;;;32.42;24.52;;;;;;;;;;1033940;28;20050;-68
2023/09/13 02:28:29;;;;;;;28.20;23.35;;;;;;;;;;1031210;28;20049;-67
2023/09/13 02:29:00;;;;;;;30.08;24.88;;;;;;;;;;1032845;28;20046;-67
2023/09/13 02:29:30;;;;;;;29.55;24.50;;;;;;;;;;1034485;28;20054;-67
2023/09/13 02:30:04;;;;;;;30.88;23.95;;;;;;;;;;1033704;28;20072;-68
2023/09/13 02:30:35;;;;;;;32.28;24.35;;;;;;;;;;1033323;28;20054;-68
2023/09/13 02:31:05;;;;;;;34.05;25.48;;;;;;;;;;1034075;28;20200;-68
2023/09/13 02:31:36;;;;;;;30.92;23.95;;;;;;;;;;1033666;28;20061;-68
2023/09/13 02:32:07;;;;;;;30.90;24.45;;;;;;;;;;1033168;28;20046;-68
2023/09/13 02:32:37;;;;;;;32.47;24.38;;;;;;;;;;1032741;28;20096;-68
2023/09/13 02:33:08;;;;;;;31.58;24.13;;;;;;;;;;1032759;28;20050;-70
2023/09/13 02:33:38;;;;;;;31.63;24.25;;;;;;;;;;1033507;28;20545;-69
2023/09/13 02:34:09;;;;;;;35.67;26.42;;;;;;;;;;1034191;28;20057;-67
2023/09/13 02:34:44;;;;;;;35.92;25.13;;;;;;;;;;1032698;28;22341;-68
2023/09/13 02:35:14;;;;;;;31.90;25.27;;;;;;;;;;1031993;28;20310;-70
2023/09/13 02:35:47;;;;;;;36.50;25.40;;;;;;;;;;1032526;28;20754;-68
2023/09/13 02:36:17;;;;;;;31.17;24.95;;;;;;;;;;1032608;28;20159;-68
2023/09/13 02:36:48;;;;;;;34.10;25.10;;;;;;;;;;1033567;28;20141;-66
2023/09/13 02:37:19;;;;;;;31.95;26.00;;;;;;;;;;1032273;28;20050;-67
2023/09/13 02:37:49;;;;;;;34.17;25.40;;;;;;;;;;1034086;28;20136;-69
2023/09/13 02:38:20;;;;;;;37.58;26.35;;;;;;;;;;1034615;28;20046;-69
2023/09/13 02:38:52;;;;;;;37.25;26.25;;;;;;;;;;1033657;28;20045;-67
2023/09/13 02:39:38;;;;;;;36.42;25.60;;;;;;;;;;1033656;28;20069;-68
2023/09/13 02:40:10;;;;;;;29.67;24.20;;;;;;;;;;1032139;28;20553;-68
2023/09/13 02:40:40;;;;;;;34.45;25.80;;;;;;;;;;1033377;28;20108;-68
2023/09/13 02:41:11;;;;;;;35.40;25.25;;;;;;;;;;1033400;28;20061;-68
2023/09/13 02:41:41;;;;;;;35.00;26.77;;;;;;;;;;1034321;28;20212;-67
2023/09/13 02:42:12;;;;;;;37.45;26.10;;;;;;;;;;1031650;28;20508;-67
2023/09/13 02:42:43;;;;;;;37.55;26.35;;;;;;;;;;1032465;28;20087;-69
2023/09/13 02:43:13;;;;;;;37.67;25.30;;;;;;;;;;1033976;28;20052;-67
2023/09/13 02:43:44;;;;;;;37.38;27.05;;;;;;;;;;1033565;28;20049;-67
2023/09/13 02:44:14;;;;;;;34.35;25.90;;;;;;;;;;1032886;28;20042;-69
2023/09/13 02:44:45;;;;;;;40.95;26.98;;;;;;;;;;1032246;28;20050;-67
2023/09/13 02:45:16;;;;;;;41.38;27.58;;;;;;;;;;1033622;28;20050;-66
2023/09/13 02:45:46;;;;;;;33.15;25.38;;;;;;;;;;1032822;28;20056;-67
2023/09/13 02:46:17;;;;;;;39.75;26.23;;;;;;;;;;1034514;28;20160;-68
2023/09/13 02:46:47;;;;;;;39.63;26.98;;;;;;;;;;1033123;28;20060;-69
2023/09/13 02:47:18;;;;;;;39.45;26.23;;;;;;;;;;1032052;28;20042;-68
2023/09/13 02:47:48;;;;;;;41.53;25.42;;;;;;;;;;1033214;28;20065;-68
2023/09/13 02:48:19;;;;;;;36.38;25.50;;;;;;;;;;1032073;28;20483;-69
2023/09/13 02:48:49;;;;;;;44.13;26.25;;;;;;;;;;1033677;28;20060;-69
2023/09/13 02:49:20;;;;;;;39.45;26.88;;;;;;;;;;1035443;28;20057;-68
2023/09/13 02:49:51;;;;;;;40.03;26.40;;;;;;;;;;1032831;28;20119;-67
2023/09/13 02:50:21;;;;;;;48.85;28.67;;;;;;;;;;1031604;28;20312;-68
2023/09/13 02:50:52;;;;;;;41.20;27.23;;;;;;;;;;1032245;28;20058;-67
2023/09/13 02:51:22;;;;;;;38.92;25.77;;;;;;;;;;1033214;28;20650;-68
2023/09/13 02:51:53;;;;;;;42.90;26.00;;;;;;;;;;1033419;28;20128;-68
2023/09/13 02:52:32;;;;;;;40.47;26.50;;;;;;;;;;1029374;28;20057;-69
2023/09/13 02:53:03;;;;;;;40.25;26.00;;;;;;;;;;1032253;28;20107;-67
2023/09/13 02:53:33;;;;;;;46.08;27.05;;;;;;;;;;1032662;28;20053;-68
2023/09/13 02:54:04;;;;;;;45.65;27.45;;;;;;;;;;1034352;28;20053;-68
2023/09/13 02:54:35;;;;;;;36.92;26.58;;;;;;;;;;1031709;28;20137;-68
2023/09/13 02:55:06;;;;;;;39.40;27.65;;;;;;;;;;1033673;28;20078;-67
2023/09/13 02:55:36;;;;;;;41.28;28.40;;;;;;;;;;1033511;28;20049;-68
2023/09/13 02:56:07;;;;;;;47.38;28.95;;;;;;;;;;1034588;28;20501;-68
2023/09/13 02:56:38;;;;;;;40.30;27.05;;;;;;;;;;1033257;28;20419;-66
2023/09/13 02:57:09;;;;;;;42.63;28.15;;;;;;;;;;1032593;28;20390;-70
2023/09/13 02:57:40;;;;;;;39.05;26.98;;;;;;;;;;1033204;28;20501;-69
2023/09/13 02:58:11;;;;;;;44.35;27.77;;;;;;;;;;1032716;28;20497;-68
2023/09/13 02:58:41;;;;;;;45.75;27.52;;;;;;;;;;1034143;28;20065;-68
2023/09/13 02:59:12;;;;;;;35.75;25.90;;;;;;;;;;1032888;28;20057;-67
2023/09/13 02:59:42;;;;;;;36.58;26.70;;;;;;;;;;1034019;28;20809;-67
2023/09/13 03:00:13;;;;;;;48.92;26.23;;;;;;;;;;1032194;28;20153;-69
2023/09/13 03:00:44;;;;;;;41.17;28.02;;;;;;;;;;1032916;28;20775;-68
2023/09/13 03:01:14;;;;;;;42.72;27.45;;;;;;;;;;1033704;28;20403;-66
2023/09/13 03:01:45;;;;;;;44.15;27.08;;;;;;;;;;1033827;28;20062;-69
2023/09/13 03:02:15;;;;;;;36.83;26.63;;;;;;;;;;1036050;28;20049;-70
2023/09/13 03:02:46;;;;;;;40.88;27.00;;;;;;;;;;1037011;28;20052;-66
2023/09/13 03:03:16;;;;;;;43.45;26.40;;;;;;;;;;1038392;28;20152;-69
2023/09/13 03:03:47;;;;;;;39.55;26.60;;;;;;;;;;1036929;28;20087;-69
2023/09/13 03:04:17;;;;;;;40.17;26.05;;;;;;;;;;1033401;28;20084;-67
2023/09/13 03:04:52;;;;;;;32.72;25.92;;;;;;;;;;1033233;28;20708;-68
2023/09/13 03:05:23;;;;;;;40.67;27.55;;;;;;;;;;1034489;28;20054;-67
2023/09/13 03:05:54;;;;;;;37.28;26.70;;;;;;;;;;1033034;28;20100;-66
2023/09/13 03:06:24;;;;;;;39.55;27.00;;;;;;;;;;1033436;28;21028;-68
2023/09/13 03:06:55;;;;;;;36.63;26.77;;;;;;;;;;1032487;28;20045;-68
2023/09/13 03:07:25;;;;;;;36.53;25.90;;;;;;;;;;1033055;28;20046;-66
2023/09/13 03:07:56;;;;;;;34.65;27.10;;;;;;;;;;1033830;28;20057;-67
2023/09/13 03:08:27;;;;;;;31.55;25.42;;;;;;;;;;1033686;28;20041;-68
2023/09/13 03:08:58;;;;;;;35.90;26.27;;;;;;;;;;1032974;28;20053;-67
2023/09/13 03:09:28;;;;;;;37.38;25.60;;;;;;;;;;1034266;28;20053;-68